createdAt,value
2023-03-12T00:00:22.517Z,94044.59
2023-03-12T00:03:15.546Z,94048.72
2023-03-12T00:06:10.548Z,94045.38
2023-03-12T00:09:02.392Z,94063.94
2023-03-12T00:11:50.329Z,94071.81
2023-03-12T00:14:40.828Z,94075.78
2023-03-12T00:17:28.278Z,94084.19
2023-03-12T00:20:23.135Z,94073.56
2023-03-12T00:23:13.761Z,94077.50
2023-03-12T00:26:04.649Z,94086.16
2023-03-12T00:28:54.923Z,94078.44
2023-03-12T00:31:43.857Z,94079.00
2023-03-12T00:34:31.720Z,94071.09
2023-03-12T00:37:23.073Z,94071.53
2023-03-12T00:40:14.488Z,94081.78
2023-03-12T00:43:02.369Z,94074.25
2023-03-12T00:45:54.737Z,94082.91
2023-03-12T00:48:44.845Z,94078.75
2023-03-12T00:51:31.964Z,94074.59
2023-03-12T00:54:22.216Z,94076.53
2023-03-12T00:57:11.126Z,94081.63
2023-03-12T01:00:05.194Z,94078.91
2023-03-12T01:02:53.575Z,94081.47
2023-03-12T01:05:39.132Z,94077.06
2023-03-12T01:08:27.649Z,94089.31
2023-03-12T01:11:22.159Z,94085.53
2023-03-12T01:14:18.813Z,94081.56
2023-03-12T01:17:02.208Z,94091.00
2023-03-12T01:19:45.965Z,94095.31
2023-03-12T01:22:29.793Z,94102.41
2023-03-12T01:25:13.901Z,94100.03
2023-03-12T01:27:59.470Z,94107.28
2023-03-12T01:30:43.720Z,94097.28
2023-03-12T01:33:36.775Z,94094.25
2023-03-12T01:36:30.155Z,94102.91
2023-03-12T01:39:19.032Z,94097.59
2023-03-12T01:42:03.199Z,94099.13
2023-03-12T01:44:59.401Z,94110.97
2023-03-12T01:47:52.193Z,94105.53
2023-03-12T01:50:39.690Z,94109.31
2023-03-12T01:53:28.682Z,94112.09
2023-03-12T01:56:20.149Z,94115.22
2023-03-12T01:59:21.078Z,94101.25
2023-03-12T02:02:13.450Z,94109.31
2023-03-12T02:05:09.557Z,94102.59
2023-03-12T02:07:56.273Z,94107.97
2023-03-12T02:10:41.305Z,94120.91
2023-03-12T02:13:30.092Z,94112.69
2023-03-12T02:16:18.115Z,94124.84
2023-03-12T02:19:24.712Z,94111.63
2023-03-12T02:22:16.257Z,94104.56
2023-03-12T02:25:07.886Z,94088.75
2023-03-12T02:28:01.738Z,94091.16
2023-03-12T02:30:53.368Z,94093.47
2023-03-12T02:33:43.908Z,94075.81
2023-03-12T02:36:30.165Z,94083.00
2023-03-12T02:39:22.027Z,94072.75
2023-03-12T02:42:11.677Z,94087.16
2023-03-12T02:45:08.943Z,94083.16
2023-03-12T02:47:56.150Z,94079.97
2023-03-12T02:50:48.648Z,94088.88
2023-03-12T02:53:41.592Z,94079.97
2023-03-12T02:56:34.031Z,94079.19
2023-03-12T02:59:23.404Z,94077.69
2023-03-12T03:02:16.861Z,94073.53
2023-03-12T03:05:08.256Z,94091.31
2023-03-12T03:07:56.532Z,94087.22
2023-03-12T03:10:40.450Z,94079.00
2023-03-12T03:13:32.287Z,94075.63
2023-03-12T03:16:21.841Z,94090.59
2023-03-12T03:19:07.428Z,94107.41
2023-03-12T03:21:51.690Z,94110.75
2023-03-12T03:24:42.578Z,94113.25
2023-03-12T03:27:36.374Z,94120.03
2023-03-12T03:30:23.482Z,94142.88
2023-03-12T03:33:16.306Z,94135.19
2023-03-12T03:36:10.357Z,94132.13
2023-03-12T03:39:01.990Z,94134.56
2023-03-12T03:41:54.942Z,94134.94
2023-03-12T03:44:46.610Z,94156.63
2023-03-12T03:47:37.362Z,94157.59
2023-03-12T03:50:24.895Z,94163.69
2023-03-12T03:53:16.225Z,94175.69
2023-03-12T03:56:06.574Z,94173.72
2023-03-12T03:58:56.205Z,94184.13
2023-03-12T04:01:43.247Z,94192.44
2023-03-12T04:04:34.415Z,94182.94
2023-03-12T04:07:25.456Z,94192.78
2023-03-12T04:10:16.507Z,94203.00
2023-03-12T04:13:06.312Z,94206.75
2023-03-12T04:15:52.223Z,94220.75
2023-03-12T04:18:41.757Z,94214.63
2023-03-12T04:21:33.828Z,94224.47
2023-03-12T04:24:26.610Z,94223.09
2023-03-12T04:27:18.727Z,94235.16
2023-03-12T04:30:08.790Z,94233.13
2023-03-12T04:32:55.623Z,94247.66
2023-03-12T04:35:45.211Z,94239.81
2023-03-12T04:38:36.053Z,94237.75
2023-03-12T04:41:26.377Z,94251.06
2023-03-12T04:44:18.817Z,94250.25
2023-03-12T04:47:10.521Z,94250.47
2023-03-12T04:50:02.752Z,94256.00
2023-03-12T04:52:50.046Z,94263.72
2023-03-12T04:55:39.585Z,94258.78
2023-03-12T04:58:32.671Z,94257.75
2023-03-12T05:01:32.198Z,94269.22
2023-03-12T05:04:22.532Z,94269.91
2023-03-12T05:07:12.909Z,94280.31
2023-03-12T05:10:06.949Z,94280.56
2023-03-12T05:12:53.895Z,94290.72
2023-03-12T05:15:41.834Z,94291.84
2023-03-12T05:18:36.442Z,94294.75
2023-03-12T05:21:31.474Z,94307.25
2023-03-12T05:24:25.785Z,94309.00
2023-03-12T05:27:14.817Z,94311.81
2023-03-12T05:30:04.597Z,94306.41
2023-03-12T05:32:50.466Z,94311.97
2023-03-12T05:35:43.511Z,94313.06
2023-03-12T05:38:40.121Z,94320.03
2023-03-12T05:41:27.639Z,94322.47
2023-03-12T05:44:13.903Z,94334.91
2023-03-12T05:46:59.190Z,94334.41
2023-03-12T05:49:47.057Z,94332.06
2023-03-12T05:52:37.969Z,94336.69
2023-03-12T05:55:23.969Z,94342.22
2023-03-12T05:58:11.185Z,94342.31
2023-03-12T06:01:01.142Z,94342.31
2023-03-12T06:03:50.550Z,94349.69
2023-03-12T06:06:43.136Z,94350.56
2023-03-12T06:09:30.744Z,94346.44
2023-03-12T06:12:25.678Z,94353.06
2023-03-12T06:15:21.030Z,94368.53
2023-03-12T06:18:10.616Z,94364.66
2023-03-12T06:20:54.427Z,94357.69
2023-03-12T06:23:45.247Z,94369.25
2023-03-12T06:26:35.702Z,94368.25
2023-03-12T06:29:23.503Z,94362.69
2023-03-12T06:32:17.349Z,94372.84
2023-03-12T06:35:08.204Z,94368.50
2023-03-12T06:37:55.969Z,94375.00
2023-03-12T06:40:47.349Z,94373.88
2023-03-12T06:43:36.616Z,94391.88
2023-03-12T06:46:36.875Z,94395.97
2023-03-12T06:49:23.351Z,94387.09
2023-03-12T06:52:12.572Z,94385.19
2023-03-12T06:55:01.523Z,94389.63
2023-03-12T06:57:52.184Z,94396.28
2023-03-12T07:00:42.178Z,94401.78
2023-03-12T07:03:27.697Z,94400.31
2023-03-12T07:06:21.630Z,94401.16
2023-03-12T07:09:10.523Z,94411.56
2023-03-12T07:11:57.635Z,94409.44
2023-03-12T07:14:47.494Z,94418.19
2023-03-12T07:17:36.028Z,94411.56
2023-03-12T07:20:22.930Z,94429.84
2023-03-12T07:23:08.613Z,94430.91
2023-03-12T07:25:57.312Z,94429.38
2023-03-12T07:28:47.322Z,94442.56
2023-03-12T07:31:32.899Z,94447.97
2023-03-12T07:34:21.117Z,94453.22
2023-03-12T07:37:06.454Z,94461.69
2023-03-12T07:39:53.160Z,94461.66
2023-03-12T07:42:37.940Z,94458.88
2023-03-12T07:45:23.117Z,94456.34
2023-03-12T07:48:12.916Z,94463.47
2023-03-12T07:51:02.428Z,94472.44
2023-03-12T07:53:47.768Z,94486.41
2023-03-12T07:56:34.945Z,94454.81
2023-03-12T07:59:22.733Z,94475.53
2023-03-12T08:02:07.770Z,94483.06
2023-03-12T08:04:51.576Z,94475.41
2023-03-12T08:07:37.584Z,94475.50
2023-03-12T08:10:28.651Z,94479.50
2023-03-12T08:13:16.018Z,94493.81
2023-03-12T08:16:09.284Z,94490.19
2023-03-12T08:18:58.274Z,94511.13
2023-03-12T08:21:44.373Z,94510.06
2023-03-12T08:24:36.324Z,94517.72
2023-03-12T08:27:21.860Z,94516.25
2023-03-12T08:30:14.405Z,94528.31
2023-03-12T08:33:04.177Z,94519.09
2023-03-12T08:35:58.289Z,94522.53
2023-03-12T08:38:46.196Z,94529.41
2023-03-12T08:41:34.517Z,94539.91
2023-03-12T08:44:18.638Z,94529.84
2023-03-12T08:47:02.560Z,94523.59
2023-03-12T08:49:53.860Z,94531.31
2023-03-12T08:52:42.294Z,94533.59
2023-03-12T08:55:30.511Z,94540.50
2023-03-12T08:58:19.149Z,94526.09
2023-03-12T09:01:03.136Z,94542.81
2023-03-12T09:03:49.756Z,94545.91
2023-03-12T09:06:36.000Z,94535.22
2023-03-12T09:09:22.900Z,94533.47
2023-03-12T09:12:11.016Z,94532.72
2023-03-12T09:15:04.911Z,94546.03
2023-03-12T09:17:51.754Z,94525.00
2023-03-12T09:20:37.667Z,94533.03
2023-03-12T09:23:25.333Z,94535.66
2023-03-12T09:26:17.363Z,94538.50
2023-03-12T09:29:06.320Z,94529.75
2023-03-12T09:31:55.687Z,94534.03
2023-03-12T09:34:41.389Z,94543.69
2023-03-12T09:37:27.378Z,94539.72
2023-03-12T09:40:17.817Z,94531.72
2023-03-12T09:43:07.664Z,94530.47
2023-03-12T09:45:56.214Z,94534.97
2023-03-12T09:48:47.527Z,94536.81
2023-03-12T09:51:40.725Z,94516.28
2023-03-12T09:54:30.564Z,94528.22
2023-03-12T09:57:20.899Z,94516.84
2023-03-12T10:00:08.336Z,94525.41
2023-03-12T10:03:13.683Z,94516.47
2023-03-12T10:06:13.788Z,94517.22
2023-03-12T10:09:09.539Z,94522.19
2023-03-12T10:12:02.862Z,94511.13
2023-03-12T10:15:01.217Z,94507.03
2023-03-12T10:17:56.256Z,94506.47
2023-03-12T10:21:16.389Z,94507.22
2023-03-12T10:24:18.366Z,94508.06
2023-03-12T10:27:03.773Z,94503.28
2023-03-12T10:29:51.800Z,94505.19
2023-03-12T10:32:47.191Z,94511.03
2023-03-12T10:35:35.884Z,94511.22
2023-03-12T10:38:30.702Z,94514.53
2023-03-12T10:41:20.560Z,94508.41
2023-03-12T10:44:11.563Z,94516.81
2023-03-12T10:47:17.604Z,94507.84
2023-03-12T10:50:17.547Z,94521.63
2023-03-12T10:53:29.838Z,94519.22
2023-03-12T10:56:17.494Z,94511.06
2023-03-12T10:59:05.623Z,94502.09
2023-03-12T11:01:56.433Z,94496.97
2023-03-12T11:04:44.367Z,94509.13
2023-03-12T11:07:32.530Z,94517.31
2023-03-12T11:10:28.859Z,94508.66
2023-03-12T11:13:36.533Z,94502.06
2023-03-12T11:16:32.348Z,94503.25
2023-03-12T11:19:33.399Z,94498.47
2023-03-12T11:22:34.946Z,94502.41
2023-03-12T11:25:34.002Z,94500.28
2023-03-12T11:28:26.371Z,94500.72
2023-03-12T11:31:21.262Z,94499.13
2023-03-12T11:34:12.687Z,94496.13
2023-03-12T11:37:11.961Z,94501.03
2023-03-12T11:40:17.740Z,94496.47
2023-03-12T11:43:42.769Z,94486.44
2023-03-12T11:46:49.429Z,94493.34
2023-03-12T11:49:55.645Z,94492.50
2023-03-12T11:53:01.179Z,94497.94
2023-03-12T11:56:02.441Z,94491.09
2023-03-12T11:59:20.003Z,94486.31
2023-03-12T12:02:26.872Z,94480.59
2023-03-12T12:05:30.405Z,94487.94
2023-03-12T12:08:38.859Z,94480.91
2023-03-12T12:11:32.059Z,94480.94
2023-03-12T12:14:34.112Z,94482.94
2023-03-12T12:17:31.690Z,94482.50
2023-03-12T12:20:27.647Z,94479.66
2023-03-12T12:23:21.118Z,94482.56
2023-03-12T12:26:15.472Z,94488.56
2023-03-12T12:29:19.314Z,94481.13
2023-03-12T12:32:15.759Z,94477.59
2023-03-12T12:35:10.316Z,94481.09
2023-03-12T12:38:01.248Z,94473.59
2023-03-12T12:40:51.099Z,94478.91
2023-03-12T12:43:41.841Z,94475.25
2023-03-12T12:46:29.718Z,94479.84
2023-03-12T12:49:23.904Z,94481.13
2023-03-12T12:52:11.126Z,94483.75
2023-03-12T12:55:03.248Z,94489.34
2023-03-12T12:57:53.091Z,94485.81
2023-03-12T13:00:48.871Z,94487.78
2023-03-12T13:03:40.054Z,94491.53
2023-03-12T13:06:33.332Z,94485.91
2023-03-12T13:09:20.465Z,94487.44
2023-03-12T13:12:21.076Z,94491.63
2023-03-12T13:15:43.850Z,94491.41
2023-03-12T13:18:38.877Z,94509.16
2023-03-12T13:21:36.199Z,94503.97
2023-03-12T13:24:28.564Z,94500.50
2023-03-12T13:27:21.505Z,94506.66
2023-03-12T13:30:47.669Z,94517.00
2023-03-12T13:33:50.775Z,94509.00
2023-03-12T13:36:40.284Z,94505.53
2023-03-12T13:39:33.313Z,94517.63
2023-03-12T13:42:37.235Z,94522.00
2023-03-12T13:45:29.582Z,94521.78
2023-03-12T13:48:20.654Z,94517.81
2023-03-12T13:51:19.711Z,94516.72
2023-03-12T13:54:06.582Z,94512.63
2023-03-12T13:57:02.085Z,94518.69
2023-03-12T13:59:49.745Z,94514.94
2023-03-12T14:02:40.466Z,94519.00
2023-03-12T14:05:26.393Z,94522.34
2023-03-12T14:08:29.434Z,94521.31
2023-03-12T14:11:42.099Z,94523.59
2023-03-12T14:14:56.383Z,94530.31
2023-03-12T14:17:44.090Z,94528.78
2023-03-12T14:20:33.798Z,94540.13
2023-03-12T14:23:23.131Z,94525.75
2023-03-12T14:26:17.289Z,94543.41
2023-03-12T14:29:12.859Z,94536.53
2023-03-12T14:32:05.094Z,94541.28
2023-03-12T14:34:58.672Z,94544.63
2023-03-12T14:37:47.934Z,94531.94
2023-03-12T14:40:41.399Z,94539.66
2023-03-12T14:43:30.936Z,94527.44
2023-03-12T14:46:26.224Z,94537.19
2023-03-12T14:49:24.566Z,94543.75
2023-03-12T14:52:12.804Z,94533.63
2023-03-12T14:54:59.140Z,94549.31
2023-03-12T14:57:47.449Z,94548.41
2023-03-12T15:00:37.287Z,94549.56
2023-03-12T15:03:35.444Z,94543.22
2023-03-12T15:06:35.147Z,94544.13
2023-03-12T15:09:26.596Z,94542.56
2023-03-12T15:12:26.967Z,94557.53
2023-03-12T15:15:19.782Z,94553.50
2023-03-12T15:18:10.564Z,94566.78
2023-03-12T15:20:57.604Z,94566.19
2023-03-12T15:23:46.096Z,94556.69
2023-03-12T15:26:38.424Z,94563.63
2023-03-12T15:29:27.976Z,94573.22
2023-03-12T15:32:18.753Z,94576.47
2023-03-12T15:35:18.158Z,94583.19
2023-03-12T15:38:08.748Z,94586.53
2023-03-12T15:41:00.492Z,94596.41
2023-03-12T15:43:51.262Z,94596.66
2023-03-12T15:46:37.768Z,94604.84
2023-03-12T15:49:32.368Z,94596.22
2023-03-12T15:52:35.417Z,94608.28
2023-03-12T15:55:32.361Z,94612.44
2023-03-12T15:58:29.643Z,94620.94
2023-03-12T16:01:20.243Z,94625.78
2023-03-12T16:04:07.187Z,94630.22
2023-03-12T16:06:53.877Z,94625.84
2023-03-12T16:09:42.028Z,94640.88
2023-03-12T16:12:31.425Z,94638.28
2023-03-12T16:15:21.219Z,94649.72
2023-03-12T16:18:08.673Z,94668.41
2023-03-12T16:20:56.547Z,94671.28
2023-03-12T16:23:44.874Z,94678.03
2023-03-12T16:26:32.479Z,94684.81
2023-03-12T16:29:21.351Z,94697.66
2023-03-12T16:32:14.206Z,94692.91
2023-03-12T16:35:00.151Z,94700.41
2023-03-12T16:37:47.080Z,94709.94
2023-03-12T16:40:34.369Z,94723.50
2023-03-12T16:43:22.670Z,94733.41
2023-03-12T16:46:12.794Z,94733.63
2023-03-12T16:48:57.451Z,94742.56
2023-03-12T16:51:47.656Z,94733.03
2023-03-12T16:54:34.551Z,94745.72
2023-03-12T16:57:29.577Z,94750.53
2023-03-12T17:00:18.611Z,94757.25
2023-03-12T17:03:08.251Z,94760.44
2023-03-12T17:05:56.510Z,94760.44
2023-03-12T17:08:45.801Z,94777.88
2023-03-12T17:11:34.812Z,94784.63
2023-03-12T17:14:25.773Z,94785.81
2023-03-12T17:17:14.099Z,94791.75
2023-03-12T17:20:01.196Z,94790.38
2023-03-12T17:22:46.894Z,94797.34
2023-03-12T17:25:32.848Z,94804.47
2023-03-12T17:28:22.012Z,94807.03
2023-03-12T17:31:08.590Z,94823.31
2023-03-12T17:33:55.791Z,94822.88
2023-03-12T17:36:42.687Z,94823.28
2023-03-12T17:39:32.444Z,94836.56
2023-03-12T17:42:24.565Z,94833.41
2023-03-12T17:45:14.958Z,94834.13
2023-03-12T17:48:01.245Z,94841.84
2023-03-12T17:50:50.135Z,94849.59
2023-03-12T17:53:43.581Z,94851.78
2023-03-12T17:56:32.829Z,94853.19
2023-03-12T17:59:22.108Z,94860.31
2023-03-12T18:02:09.941Z,94864.22
2023-03-12T18:04:56.726Z,94865.47
2023-03-12T18:07:43.241Z,94865.81
2023-03-12T18:10:33.287Z,94860.41
2023-03-12T18:13:18.663Z,94866.72
2023-03-12T18:16:02.330Z,94873.22
2023-03-12T18:18:46.072Z,94874.97
2023-03-12T18:21:29.584Z,94864.22
2023-03-12T18:24:14.768Z,94871.44
2023-03-12T18:27:00.132Z,94873.38
2023-03-12T18:29:50.026Z,94877.31
2023-03-12T18:32:35.914Z,94894.25
2023-03-12T18:35:20.439Z,94891.06
2023-03-12T18:38:04.771Z,94888.06
2023-03-12T18:40:52.096Z,94900.53
2023-03-12T18:43:38.536Z,94906.03
2023-03-12T18:46:25.612Z,94911.16
2023-03-12T18:49:14.597Z,94894.28
2023-03-12T18:52:00.473Z,94894.16
2023-03-12T18:54:47.148Z,94911.91
2023-03-12T18:57:31.792Z,94914.72
2023-03-12T19:00:19.722Z,94920.56
2023-03-12T19:03:05.471Z,94923.25
2023-03-12T19:05:50.986Z,94928.25
2023-03-12T19:08:37.887Z,94928.97
2023-03-12T19:11:23.994Z,94928.09
2023-03-12T19:14:08.246Z,94933.06
2023-03-12T19:16:57.361Z,94937.78
2023-03-12T19:19:43.244Z,94945.75
2023-03-12T19:22:31.452Z,94946.81
2023-03-12T19:25:17.641Z,94957.41
2023-03-12T19:28:04.209Z,94957.63
2023-03-12T19:30:50.337Z,94960.69
2023-03-12T19:33:38.045Z,94954.22
2023-03-12T19:36:24.415Z,94965.66
2023-03-12T19:39:22.007Z,94971.75
2023-03-12T19:42:09.879Z,94976.72
2023-03-12T19:44:57.328Z,94980.09
2023-03-12T19:47:42.824Z,94990.06
2023-03-12T19:50:33.305Z,94993.97
2023-03-12T19:53:20.116Z,95000.69
2023-03-12T19:56:08.723Z,95007.94
2023-03-12T19:58:52.029Z,95015.56
2023-03-12T20:01:38.310Z,95020.88
2023-03-12T20:04:25.040Z,95011.31
2023-03-12T20:07:13.221Z,95024.75
2023-03-12T20:10:00.642Z,95029.28
2023-03-12T20:12:47.953Z,95025.16
2023-03-12T20:15:34.757Z,95031.16
2023-03-12T20:18:23.676Z,95034.25
2023-03-12T20:21:12.445Z,95040.41
2023-03-12T20:23:58.734Z,95043.03
2023-03-12T20:26:46.622Z,95033.50
2023-03-12T20:29:33.652Z,95052.53
2023-03-12T20:32:22.358Z,95045.66
2023-03-12T20:35:08.678Z,95044.38
2023-03-12T20:37:55.012Z,95052.06
2023-03-12T20:40:42.164Z,95047.00
2023-03-12T20:43:31.291Z,95058.25
2023-03-12T20:46:18.758Z,95054.72
2023-03-12T20:49:04.039Z,95057.66
2023-03-12T20:51:50.413Z,95062.09
2023-03-12T20:54:36.516Z,95058.72
2023-03-12T20:57:28.792Z,95061.16
2023-03-12T21:00:16.712Z,95062.13
2023-03-12T21:03:03.236Z,95054.47
2023-03-12T21:05:58.698Z,95065.66
2023-03-12T21:08:43.304Z,95062.13
2023-03-12T21:11:28.478Z,95063.50
2023-03-12T21:14:17.968Z,95067.66
2023-03-12T21:17:04.909Z,95075.19
2023-03-12T21:19:51.174Z,95077.91
2023-03-12T21:22:37.350Z,95074.75
2023-03-12T21:25:25.237Z,95079.06
2023-03-12T21:28:12.431Z,95080.06
2023-03-12T21:31:00.313Z,95084.38
2023-03-12T21:33:47.007Z,95088.06
2023-03-12T21:36:30.890Z,95083.13
2023-03-12T21:39:18.976Z,95084.25
2023-03-12T21:42:04.144Z,95091.78
2023-03-12T21:44:52.886Z,95089.22
2023-03-12T21:47:45.885Z,95085.72
2023-03-12T21:50:34.239Z,95086.34
2023-03-12T21:53:24.272Z,95096.13
2023-03-12T21:56:13.888Z,95093.88
2023-03-12T21:59:06.610Z,95095.66
2023-03-12T22:01:57.480Z,95087.97
2023-03-12T22:04:48.656Z,95091.31
2023-03-12T22:07:40.418Z,95098.84
2023-03-12T22:10:28.279Z,95086.38
2023-03-12T22:13:16.540Z,95097.13
2023-03-12T22:16:04.245Z,95095.38
2023-03-12T22:18:55.928Z,95097.28
2023-03-12T22:21:52.482Z,95092.81
2023-03-12T22:24:37.188Z,95098.38
2023-03-12T22:27:28.619Z,95104.63
2023-03-12T22:30:16.624Z,95099.69
2023-03-12T22:33:05.926Z,95101.75
2023-03-12T22:35:55.373Z,95105.47
2023-03-12T22:38:44.835Z,95114.91
2023-03-12T22:41:30.867Z,95113.63
2023-03-12T22:44:19.627Z,95113.75
2023-03-12T22:47:09.301Z,95116.16
2023-03-12T22:49:53.652Z,95119.06
2023-03-12T22:52:48.383Z,95121.94
2023-03-12T22:55:44.136Z,95121.78
2023-03-12T22:58:30.469Z,95131.53
2023-03-12T23:01:23.251Z,95119.38
2023-03-12T23:04:07.394Z,95119.38
2023-03-12T23:07:11.369Z,95119.69
2023-03-12T23:10:02.940Z,95121.00
2023-03-12T23:12:54.333Z,95126.75
2023-03-12T23:15:44.560Z,95133.16
2023-03-12T23:18:30.542Z,95129.47
2023-03-12T23:21:22.719Z,95143.88
2023-03-12T23:24:11.803Z,95143.72
2023-03-12T23:27:01.263Z,95150.59
2023-03-12T23:29:50.644Z,95159.84
2023-03-12T23:32:40.689Z,95153.59
2023-03-12T23:35:30.437Z,95158.41
2023-03-12T23:38:19.180Z,95165.72
2023-03-12T23:41:05.809Z,95161.22
2023-03-12T23:43:53.500Z,95158.63
2023-03-12T23:46:46.797Z,95160.91
2023-03-12T23:49:36.603Z,95163.31
2023-03-12T23:52:28.411Z,95162.81
2023-03-12T23:55:18.064Z,95162.97
2023-03-12T23:58:04.536Z,95161.00
